Time;durP1;ratioP1;P1;durP2;ratioP2;P2;SDS_P1;SDS_P2;PMS_P1;PMS_P2;Temp;Humidity;BMP_temperature;BMP_pressure;BME280_temperature;BME280_humidity;BME280_pressure;Samples;Min_cycle;Max_cycle;Signal;HPM_P1;HPM_P2
2023/06/20 00:01:40;;;;;;;22.93;19.23;;;;;;;16.90;74.38;100308.90;1773059;80;27456;-67
2023/06/20 00:04:06;;;;;;;21.85;19.55;;;;;;;16.89;74.41;100309.25;1773028;80;25684;-67
2023/06/20 00:06:32;;;;;;;23.38;19.48;;;;;;;16.89;74.22;100307.88;1773054;80;25580;-67
2023/06/20 00:08:58;;;;;;;24.50;18.52;;;;;;;16.87;74.35;100306.86;1773042;80;25556;-67
2023/06/20 00:11:24;;;;;;;21.00;18.50;;;;;;;16.85;74.76;100307.01;1773166;80;25390;-67
2023/06/20 00:13:51;;;;;;;22.82;17.80;;;;;;;16.83;74.57;100305.18;1773072;80;27459;-67
2023/06/20 00:16:20;;;;;;;86.40;79.80;;;;;;;16.81;74.51;100306.89;1772945;80;27338;-67
2023/06/20 00:18:54;;;;;;;23.52;19.80;;;;;;;16.75;74.87;100299.53;1773056;80;25636;-67
2023/06/20 00:21:25;;;;;;;21.60;18.67;;;;;;;16.76;74.90;100305.20;1772820;80;25499;-68
2023/06/20 00:23:55;;;;;;;24.35;19.20;;;;;;;16.76;74.72;100301.11;1773078;80;25564;-67
2023/06/20 00:26:22;;;;;;;25.15;19.87;;;;;;;16.74;74.89;100299.30;1772533;80;27552;-67
2023/06/20 00:28:53;;;;;;;23.73;20.00;;;;;;;16.72;75.38;100295.32;1773003;80;25592;-67
2023/06/20 00:31:20;;;;;;;21.95;18.40;;;;;;;16.68;75.36;100293.86;1773123;80;25711;-67
2023/06/20 00:33:46;;;;;;;23.77;19.80;;;;;;;16.67;75.59;100297.76;1772995;80;25539;-67
2023/06/20 00:36:12;;;;;;;23.73;18.82;;;;;;;16.66;76.00;100298.89;1773069;80;25531;-67
2023/06/20 00:38:38;;;;;;;23.55;19.27;;;;;;;16.62;75.77;100296.65;1773114;80;27477;-67
2023/06/20 00:41:04;;;;;;;24.18;19.48;;;;;;;16.60;75.94;100298.36;1773021;80;25454;-67
2023/06/20 00:43:30;;;;;;;24.10;19.95;;;;;;;16.58;75.96;100302.56;1773015;80;25629;-67
2023/06/20 00:45:57;;;;;;;23.98;19.95;;;;;;;16.54;75.79;100307.16;1773001;80;25591;-67
2023/06/20 00:48:23;;;;;;;24.07;19.20;;;;;;;16.52;76.17;100309.44;1773064;80;25530;-67
2023/06/20 00:50:53;;;;;;;24.43;19.55;;;;;;;16.49;76.21;100310.13;1765573;80;27517;-67
2023/06/20 00:53:19;;;;;;;24.70;18.70;;;;;;;16.46;76.31;100315.70;1728498;82;25390;-68
2023/06/20 00:55:48;;;;;;;25.30;20.50;;;;;;;16.42;76.26;100314.24;1728460;82;25551;-68
2023/06/20 00:58:14;;;;;;;27.25;20.72;;;;;;;16.41;76.44;100323.59;1748939;81;27672;-67
2023/06/20 01:00:40;;;;;;;23.32;20.15;;;;;;;16.38;76.36;100326.23;1748986;81;25512;-67
2023/06/20 01:03:13;;;;;;;22.02;19.42;;;;;;;16.33;76.53;100319.07;1737819;81;27483;-67
2023/06/20 01:05:45;;;;;;;23.38;20.62;;;;;;;16.32;77.04;100326.23;1759445;81;25554;-68
2023/06/20 01:08:35;;;;;;;24.32;20.65;;;;;;;16.30;77.11;100330.67;1758964;81;25559;-67
2023/06/20 01:11:18;;;;;;;24.92;20.50;;;;;;;16.28;77.29;100324.78;1728596;83;25637;-67
2023/06/20 01:13:56;;;;;;;23.83;20.77;;;;;;;16.26;77.41;100327.06;1748186;81;25635;-67
2023/06/20 01:16:42;;;;;;;23.55;19.92;;;;;;;16.24;77.68;100321.95;1759515;81;27535;-68
2023/06/20 01:19:43;;;;;;;26.40;20.65;;;;;;;16.24;77.66;100323.31;1759496;81;25627;-66
2023/06/20 01:22:48;;;;;;;26.73;19.75;;;;;;;16.22;77.45;100317.38;1758158;81;25399;-66
2023/06/20 01:25:45;;;;;;;24.00;20.80;;;;;;;16.20;77.55;100318.30;1733504;82;25667;-67
2023/06/20 01:28:33;;;;;;;23.12;20.27;;;;;;;16.17;77.58;100317.63;1731972;82;25351;-69
2023/06/20 01:31:19;;;;;;;25.25;21.37;;;;;;;16.15;77.75;100319.13;1732825;82;27621;-69
2023/06/20 01:34:02;;;;;;;25.20;21.42;;;;;;;16.14;77.87;100322.98;1733413;82;25597;-67
2023/06/20 01:36:43;;;;;;;24.35;21.15;;;;;;;16.10;78.03;100320.73;1733482;82;25527;-67
2023/06/20 01:39:17;;;;;;;24.35;19.92;;;;;;;16.05;77.65;100325.86;1732688;82;25696;-67
2023/06/20 01:41:46;;;;;;;27.67;24.20;;;;;;;16.01;78.17;100323.03;1671421;85;25545;-67
2023/06/20 01:44:15;;;;;;;26.50;20.60;;;;;;;15.94;78.04;100318.73;1675960;84;27563;-66
2023/06/20 01:46:44;;;;;;;29.77;23.07;;;;;;;15.95;78.12;100322.25;1672715;85;25609;-66
2023/06/20 01:49:14;;;;;;;22.60;20.10;;;;;;;15.94;78.51;100323.41;1701078;84;25639;-69
2023/06/20 01:51:42;;;;;;;22.67;20.17;;;;;;;15.89;78.15;100323.64;1680733;85;25607;-69
2023/06/20 01:54:11;;;;;;;24.72;20.45;;;;;;;15.88;78.31;100324.19;1739536;82;25673;-69
2023/06/20 01:56:40;;;;;;;24.30;21.67;;;;;;;15.84;78.48;100321.36;1739779;82;28128;-67
2023/06/20 01:59:08;;;;;;;29.30;21.13;;;;;;;15.81;78.75;100326.13;1739661;82;25651;-67
2023/06/20 02:01:36;;;;;;;27.07;20.43;;;;;;;15.78;78.66;100326.02;1732720;81;25422;-66
2023/06/20 02:04:05;;;;;;;24.20;19.65;;;;;;;15.74;78.60;100320.44;1765850;81;25472;-66
2023/06/20 02:06:34;;;;;;;24.52;20.80;;;;;;;15.72;78.55;100321.35;1766111;81;25628;-66
2023/06/20 02:09:04;;;;;;;26.85;20.85;;;;;;;15.70;78.97;100325.00;1766073;81;28091;-67
2023/06/20 02:11:33;;;;;;;24.82;20.90;;;;;;;15.68;78.99;100329.97;1765859;81;25615;-68
2023/06/20 02:14:02;;;;;;;25.75;20.57;;;;;;;15.66;79.16;100326.25;1766057;81;34627;-67
2023/06/20 02:16:34;;;;;;;27.25;20.30;;;;;;;15.65;78.95;100332.83;1765971;81;25426;-69
2023/06/20 02:19:02;;;;;;;54.67;49.73;;;;;;;15.62;79.25;100326.69;1765124;81;25632;-67
2023/06/20 02:21:34;;;;;;;24.67;20.77;;;;;;;15.59;79.13;100325.22;1739899;82;27623;-67
2023/06/20 02:24:05;;;;;;;24.27;20.15;;;;;;;15.59;79.45;100332.04;1739647;82;25815;-67
2023/06/20 02:26:34;;;;;;;24.05;19.95;;;;;;;15.55;79.19;100329.20;1763511;81;25469;-67
2023/06/20 02:29:06;;;;;;;31.27;28.10;;;;;;;15.55;79.43;100336.59;1763395;81;26238;-68
2023/06/20 02:31:37;;;;;;;24.40;21.40;;;;;;;15.53;79.44;100335.57;1763538;81;25555;-66
2023/06/20 02:34:09;;;;;;;24.43;21.73;;;;;;;15.53;79.69;100333.39;1763586;81;27457;-68
2023/06/20 02:36:37;;;;;;;24.80;21.27;;;;;;;15.52;79.39;100335.91;1763390;81;25398;-66
2023/06/20 02:39:06;;;;;;;25.40;22.42;;;;;;;15.51;79.72;100329.67;1763419;81;25407;-67
2023/06/20 02:41:32;;;;;;;25.37;22.02;;;;;;;15.48;79.66;100325.68;1763626;81;25627;-68
2023/06/20 02:43:59;;;;;;;24.87;22.15;;;;;;;15.47;80.06;100330.11;1763669;81;25456;-68
2023/06/20 02:46:48;;;;;;;26.17;21.15;;;;;;;15.45;80.21;100326.94;1763572;81;27493;-68
2023/06/20 02:49:40;;;;;;;26.00;21.12;;;;;;;15.42;80.03;100329.76;1737065;82;25609;-67
2023/06/20 02:52:21;;;;;;;26.62;22.02;;;;;;;15.42;79.92;100337.15;1738477;82;25335;-67
2023/06/20 02:54:55;;;;;;;24.82;21.87;;;;;;;15.40;80.04;100330.67;1738872;82;27755;-67
2023/06/20 02:57:24;;;;;;;29.42;21.82;;;;;;;15.38;80.07;100333.52;1738199;82;25648;-67
2023/06/20 02:59:58;;;;;;;27.23;22.23;;;;;;;15.37;80.24;100335.44;1739077;82;27551;-68
2023/06/20 03:02:29;;;;;;;29.63;21.87;;;;;;;15.35;80.32;100336.34;1678781;85;25464;-67
2023/06/20 03:05:00;;;;;;;28.00;21.75;;;;;;;15.33;80.48;100338.63;1708066;84;25518;-68
2023/06/20 03:07:33;;;;;;;28.87;22.07;;;;;;;15.31;80.49;100333.52;1708037;84;26210;-68
2023/06/20 03:10:03;;;;;;;29.92;23.05;;;;;;;15.30;80.84;100333.84;1708102;84;25550;-68
2023/06/20 03:12:31;;;;;;;28.75;22.55;;;;;;;15.29;80.75;100333.64;1708019;84;27607;-69
2023/06/20 03:14:57;;;;;;;28.73;24.63;;;;;;;15.30;80.92;100336.58;1707961;84;25785;-69
2023/06/20 03:17:23;;;;;;;31.40;22.45;;;;;;;15.31;81.38;100338.96;1708031;84;25609;-69
2023/06/20 03:19:49;;;;;;;28.92;22.87;;;;;;;15.32;81.27;100339.75;1708053;84;25541;-69
2023/06/20 03:22:17;;;;;;;31.48;22.75;;;;;;;15.35;81.58;100339.65;1708163;84;25518;-69
2023/06/20 03:24:47;;;;;;;30.60;25.57;;;;;;;15.38;81.53;100345.21;1707977;84;27466;-69
2023/06/20 03:27:11;;;;;;;26.55;23.38;;;;;;;15.40;81.62;100342.94;1734651;82;25557;-68
2023/06/20 03:29:37;;;;;;;30.82;27.60;;;;;;;15.44;81.89;100347.95;1741141;82;25596;-68
2023/06/20 03:32:06;;;;;;;30.82;23.67;;;;;;;15.47;81.89;100345.89;1741106;82;25762;-69
2023/06/20 03:34:32;;;;;;;25.70;22.90;;;;;;;15.53;82.22;100347.02;1741270;82;25564;-68
2023/06/20 03:36:58;;;;;;;30.65;22.02;;;;;;;15.56;82.01;100349.89;1741128;82;28221;-69
2023/06/20 03:39:26;;;;;;;69.95;64.30;;;;;;;15.57;81.99;100350.09;1740959;82;25396;-69
2023/06/20 03:41:52;;;;;;;26.95;22.17;;;;;;;15.58;82.29;100350.33;1741080;82;25613;-69
2023/06/20 03:44:18;;;;;;;31.77;26.82;;;;;;;15.59;82.21;100343.73;1741012;82;25641;-66
2023/06/20 03:46:44;;;;;;;32.35;25.62;;;;;;;15.64;82.21;100350.89;1741106;82;25439;-66
2023/06/20 03:49:10;;;;;;;33.18;27.07;;;;;;;15.68;82.30;100355.87;1741121;82;27446;-68
2023/06/20 03:51:39;;;;;;;29.40;24.77;;;;;;;15.71;82.47;100359.86;1741241;82;25770;-68
2023/06/20 03:54:06;;;;;;;33.28;25.37;;;;;;;15.72;82.46;100356.80;1770882;81;25600;-68
2023/06/20 03:56:32;;;;;;;30.48;26.62;;;;;;;15.75;82.57;100355.30;1770885;81;25481;-68
2023/06/20 03:58:58;;;;;;;29.52;25.70;;;;;;;15.76;82.67;100359.09;1770916;80;25443;-68
2023/06/20 04:01:24;;;;;;;35.28;29.60;;;;;;;15.79;83.02;100358.98;1771000;81;27405;-68
2023/06/20 04:03:55;;;;;;;33.42;24.85;;;;;;;15.81;83.09;100358.86;1770803;81;25499;-68
2023/06/20 04:06:30;;;;;;;34.70;26.62;;;;;;;15.85;83.58;100358.96;1768178;81;25381;-68
2023/06/20 04:08:49;;;;;;;32.75;28.42;;;;;;;15.91;83.61;100357.59;1766501;81;25537;-68
2023/06/20 04:11:15;;;;;;;29.23;26.07;;;;;;;16.00;83.80;100360.20;1768195;81;25363;-68
2023/06/20 04:13:41;;;;;;;30.68;27.35;;;;;;;16.07;84.24;100361.77;1768123;81;29712;-66
2023/06/20 04:16:09;;;;;;;32.17;26.35;;;;;;;16.16;84.60;100354.84;1768096;81;25368;-67
2023/06/20 04:18:35;;;;;;;33.23;27.90;;;;;;;16.23;84.67;100363.23;1744274;81;25424;-67
2023/06/20 04:21:02;;;;;;;31.80;27.00;;;;;;;16.31;85.02;100365.58;1768117;81;25545;-67
2023/06/20 04:23:30;;;;;;;32.73;26.68;;;;;;;16.39;85.11;100373.63;1768169;81;25474;-67
2023/06/20 04:25:57;;;;;;;30.65;27.20;;;;;;;16.49;85.46;100373.71;1768119;81;27515;-67
2023/06/20 04:28:23;;;;;;;31.82;25.15;;;;;;;16.59;85.42;100370.48;1768079;81;25877;-68
2023/06/20 04:30:50;;;;;;;29.20;26.15;;;;;;;16.68;85.39;100368.97;1768104;81;25484;-68
2023/06/20 04:33:17;;;;;;;30.72;25.30;;;;;;;16.80;85.20;100377.13;1768086;81;25496;-68
2023/06/20 04:35:43;;;;;;;30.85;26.40;;;;;;;16.90;85.34;100369.00;1768128;81;25366;-68
2023/06/20 04:38:09;;;;;;;29.57;26.37;;;;;;;17.02;85.54;100368.72;1768096;81;29717;-68
2023/06/20 04:40:37;;;;;;;30.40;27.20;;;;;;;17.13;85.71;100371.95;1768122;81;25176;-68
2023/06/20 04:43:03;;;;;;;30.52;25.35;;;;;;;17.24;86.11;100357.19;1768084;80;25532;-68
2023/06/20 04:45:31;;;;;;;31.10;25.80;;;;;;;17.35;85.96;100365.09;1768110;81;25532;-68
2023/06/20 04:47:59;;;;;;;27.73;24.72;;;;;;;17.45;85.50;100367.88;1768179;80;25632;-68
2023/06/20 04:50:26;;;;;;;29.65;26.12;;;;;;;17.57;85.92;100373.00;1768114;79;28404;-67
2023/06/20 04:52:53;;;;;;;27.45;22.73;;;;;;;17.69;85.71;100366.88;1751055;81;25574;-68
2023/06/20 04:55:21;;;;;;;28.35;22.13;;;;;;;17.81;85.09;100371.44;1749030;82;25585;-68
2023/06/20 04:57:47;;;;;;;64.40;58.90;;;;;;;17.92;84.56;100370.34;1749003;82;25465;-68
2023/06/20 05:00:18;;;;;;;30.45;26.75;;;;;;;18.06;84.39;100369.85;1749012;81;25468;-68
2023/06/20 05:02:44;;;;;;;30.77;26.15;;;;;;;18.23;84.44;100375.50;1749202;82;27488;-69
2023/06/20 05:05:12;;;;;;;25.55;22.80;;;;;;;18.42;85.18;100370.60;1748835;81;25721;-69
2023/06/20 05:07:41;;;;;;;24.52;21.30;;;;;;;18.60;83.81;100371.76;1748964;82;25435;-65
2023/06/20 05:10:10;;;;;;;24.00;21.23;;;;;;;18.80;83.49;100370.38;1759479;81;35210;-66
2023/06/20 05:12:36;;;;;;;21.42;18.52;;;;;;;19.02;83.87;100369.64;1759627;81;25591;-66
2023/06/20 05:15:05;;;;;;;25.57;22.98;;;;;;;19.26;84.19;100368.26;1759421;81;29650;-66
2023/06/20 05:17:32;;;;;;;55.95;51.35;;;;;;;19.51;84.65;100371.42;1759558;81;25573;-66
2023/06/20 05:20:05;;;;;;;22.22;19.92;;;;;;;19.76;83.80;100367.13;1728448;82;25479;-66
2023/06/20 05:22:27;;;;;;;18.27;16.48;;;;;;;20.01;83.15;100379.06;1748926;81;25500;-66
2023/06/20 05:24:54;;;;;;;19.23;17.27;;;;;;;20.19;80.75;100372.42;1749009;82;25553;-66
2023/06/20 05:27:20;;;;;;;19.60;17.50;;;;;;;20.38;80.08;100381.12;1748963;81;27517;-66
2023/06/20 05:29:48;;;;;;;18.15;16.32;;;;;;;20.56;79.55;100377.80;1748878;81;25436;-65
2023/06/20 05:32:14;;;;;;;18.70;16.85;;;;;;;20.73;78.69;100375.85;1748919;82;25616;-64
2023/06/20 05:34:40;;;;;;;18.80;16.97;;;;;;;20.88;77.55;100375.43;1748927;82;25486;-65
2023/06/20 05:37:06;;;;;;;18.10;16.30;;;;;;;21.04;76.80;100377.37;1748986;82;25561;-66
2023/06/20 05:39:32;;;;;;;19.35;16.37;;;;;;;21.24;76.05;100376.55;1749001;81;27434;-65
2023/06/20 05:42:00;;;;;;;25.32;18.57;;;;;;;21.48;76.13;100374.41;1748860;81;25460;-65
2023/06/20 05:44:28;;;;;;;58.48;54.05;;;;;;;21.76;75.81;100375.22;1748919;82;25737;-65
2023/06/20 05:46:54;;;;;;;21.37;15.05;;;;;;;22.08;75.31;100379.33;1748918;82;26135;-66
2023/06/20 05:49:21;;;;;;;16.00;14.30;;;;;;;22.38;74.90;100377.13;1748996;82;25589;-65
2023/06/20 05:51:48;;;;;;;14.65;13.20;;;;;;;22.70;72.77;100381.98;1759359;81;27468;-65
2023/06/20 05:54:14;;;;;;;14.87;13.38;;;;;;;22.95;71.22;100379.85;1759522;81;26070;-65
2023/06/20 05:56:41;;;;;;;17.02;15.13;;;;;;;23.16;70.39;100384.66;1759413;81;25607;-65
2023/06/20 05:59:07;;;;;;;14.90;13.40;;;;;;;23.39;69.01;100382.87;1759372;81;25538;-65
2023/06/20 06:01:33;;;;;;;15.45;13.10;;;;;;;23.62;68.47;100383.09;1759392;81;25513;-66
2023/06/20 06:04:02;;;;;;;14.47;12.82;;;;;;;23.85;67.87;100379.91;1723957;83;27470;-66
2023/06/20 06:06:29;;;;;;;14.73;13.22;;;;;;;24.07;66.94;100381.25;1748923;81;25529;-65
2023/06/20 06:08:55;;;;;;;15.72;12.53;;;;;;;24.22;66.16;100376.64;1749014;81;25594;-66
2023/06/20 06:11:21;;;;;;;14.70;13.25;;;;;;;24.36;65.09;100386.07;1748888;82;25520;-64
2023/06/20 06:13:47;;;;;;;15.05;12.95;;;;;;;24.50;65.25;100389.37;1748984;82;25416;-65
2023/06/20 06:16:13;;;;;;;21.42;17.98;;;;;;;24.67;64.09;100386.35;1749005;81;27522;-65
2023/06/20 06:18:41;;;;;;;18.48;12.65;;;;;;;24.79;63.59;100389.45;1748982;82;25601;-65
2023/06/20 06:21:07;;;;;;;13.98;12.47;;;;;;;24.97;63.01;100392.09;1749128;82;25403;-64
2023/06/20 06:23:35;;;;;;;12.93;11.73;;;;;;;25.16;62.47;100394.15;1759510;81;25545;-65
2023/06/20 06:26:04;;;;;;;14.68;13.22;;;;;;;25.34;61.94;100392.06;1759576;81;25419;-65
2023/06/20 06:28:30;;;;;;;;;;;;;;;25.48;61.27;100384.23;1762179;81;27564;-65
2023/06/20 06:31:27;;;;;;;75.83;70.83;;;;;;;25.70;60.29;100388.20;1759444;81;25590;-65
2023/06/20 06:33:57;;;;;;;76.12;71.35;;;;;;;25.87;59.28;100381.69;1733000;82;25657;-65
2023/06/20 06:36:25;;;;;;;74.55;69.62;;;;;;;26.11;59.20;100382.47;1732816;82;26154;-65
2023/06/20 06:38:54;;;;;;;78.20;73.15;;;;;;;26.31;58.52;100378.47;1733138;82;25597;-64
2023/06/20 06:41:23;;;;;;;46.88;43.78;;;;;;;26.45;57.95;100376.28;1733052;82;27521;-65
2023/06/20 06:43:49;;;;;;;84.13;77.93;;;;;;;26.64;58.28;100378.25;1733438;82;25488;-65
2023/06/20 06:46:15;;;;;;;73.65;68.85;;;;;;;;;;1733354;82;25749;-65
2023/06/20 06:48:42;;;;;;;3.10;3.00;;;;;;;;;;1733293;81;34855;-65
2023/06/20 06:51:09;;;;;;;9.43;9.03;;;;;;;;;;1733563;82;80731;-65
2023/06/20 06:53:36;;;;;;;17.67;17.00;;;;;;;;;;1733441;82;27390;-65
2023/06/20 06:56:04;;;;;;;2.00;2.00;;;;;;;;;;1665778;86;27155;-65
2023/06/20 06:58:30;;;;;;;2.77;2.70;;;;;;;;;;1688238;84;25340;-65
2023/06/20 07:00:56;;;;;;;2.25;2.25;;;;;;;;;;1741433;81;35121;-64
2023/06/20 07:03:24;;;;;;;14.53;6.95;;;;;;;;;;1741698;81;25470;-64
2023/06/20 07:05:51;;;;;;;12.05;10.85;;;;;;;;;;1762136;81;29482;-64
2023/06/20 07:08:18;;;;;;;14.60;12.25;;;;;;;;;;1761960;81;25273;-63
2023/06/20 07:10:47;;;;;;;13.90;12.63;;;;;;;;;;1762064;81;25409;-64
2023/06/20 07:13:14;;;;;;;15.03;13.60;;;;;;;;;;1741290;82;25618;-64
2023/06/20 07:15:41;;;;;;;35.23;32.70;;;;;;;;;;1741246;82;25356;-65
2023/06/20 07:18:08;;;;;;;13.85;12.58;;;;;;;;;;1741263;82;29608;-64
2023/06/20 07:20:36;;;;;;;79.42;73.97;;;;;;;;;;1741155;82;25449;-64
2023/06/20 07:23:02;;;;;;;76.47;71.57;;;;;;;;;;1741181;82;25475;-64
2023/06/20 07:25:30;;;;;;;76.28;71.77;;;;;;;;;;1741110;82;25509;-65
2023/06/20 07:27:58;;;;;;;75.05;70.55;;;;;;;;;;1741260;82;25467;-64
2023/06/20 07:30:25;;;;;;;73.65;69.10;;;;;;;;;;1741373;82;29047;-64
2023/06/20 07:32:52;;;;;;;32.27;30.13;;;;;;;;;;1741288;82;25483;-65
2023/06/20 07:35:20;;;;;;;51.40;48.00;;;;;;;;;;1741217;82;25369;-65
2023/06/20 07:37:47;;;;;;;12.53;11.97;;;;;;;;;;1741290;82;26122;-65
2023/06/20 07:40:14;;;;;;;72.55;68.30;;;;;;;;;;1741177;82;25263;-64
2023/06/20 07:42:41;;;;;;;12.98;12.33;;;;;;;;;;1741210;82;28006;-64
2023/06/20 07:45:10;;;;;;;70.28;66.17;;;;;;;;;;1741114;82;25314;-66
2023/06/20 07:47:36;;;;;;;3.67;3.47;;;;;;;;;;1741295;82;25401;-66
2023/06/20 07:50:26;;;;;;;10.60;9.40;;;;;;;;;;1761122;81;27779;-66
2023/06/20 07:52:53;;;;;;;73.42;68.85;;;;;;;;;;1612395;89;25616;-66
2023/06/20 07:55:20;;;;;;;67.82;63.87;;;;;;;;;;1614448;88;27425;-67
2023/06/20 07:57:48;;;;;;;10.88;10.48;;;;;;;;;;1614310;88;25644;-67
2023/06/20 08:00:17;;;;;;;4.78;4.62;;;;;;;;;;1614728;88;25626;-67
2023/06/20 08:02:44;;;;;;;5.55;5.35;;;;;;;;;;1614506;88;25597;-67
2023/06/20 08:05:12;;;;;;;4.12;3.50;;;;;;;;;;1614404;88;25569;-67
2023/06/20 08:07:39;;;;;;;8.33;7.53;;;;;;;;;;1614365;88;27597;-67
2023/06/20 08:10:10;;;;;;;8.68;7.87;;;;;;;;;;1614500;88;25645;-69
2023/06/20 08:12:38;;;;;;;8.68;7.70;;;;;;;;;;1614445;88;25612;-66
2023/06/20 08:15:07;;;;;;;46.85;43.87;;;;;;;;;;1614477;88;26261;-67
2023/06/20 08:17:35;;;;;;;68.45;64.05;;;;;;;;;;1614449;88;25445;-70
2023/06/20 14:36:47;;;;;;;8.00;7.20;;;;;;;32.97;29.98;100268.99;1867919;76;26780;-58
2023/06/20 14:39:13;;;;;;;8.53;7.72;;;;;;;32.62;30.17;100258.66;1824475;78;25179;-59
2023/06/20 14:41:41;;;;;;;9.25;8.45;;;;;;;32.42;30.24;100255.62;1824600;78;28549;-60
2023/06/20 14:44:08;;;;;;;8.18;7.47;;;;;;;32.25;30.05;100252.30;1824880;78;25182;-59
2023/06/20 14:46:36;;;;;;;9.43;7.70;;;;;;;32.15;30.83;100254.89;1824684;78;25537;-62
2023/06/20 14:49:03;;;;;;;9.20;8.35;;;;;;;32.05;31.40;100247.67;1824865;78;25379;-60
2023/06/20 14:51:29;;;;;;;10.15;7.60;;;;;;;31.91;31.60;100246.98;1824511;78;25426;-60
2023/06/20 14:53:55;;;;;;;9.28;8.48;;;;;;;31.79;31.57;100245.83;1824526;78;27468;-60
2023/06/20 14:56:21;;;;;;;9.85;8.38;;;;;;;31.70;31.35;100244.98;1824388;78;25435;-59
2023/06/20 14:58:49;;;;;;;9.75;8.10;;;;;;;31.58;31.39;100247.37;1824658;78;25217;-60
2023/06/20 15:01:16;;;;;;;20.43;19.07;;;;;;;31.49;31.79;100247.30;1824457;78;27370;-58
2023/06/20 15:03:44;;;;;;;30.62;28.45;;;;;;;31.40;31.18;100243.05;1824466;78;25580;-59
2023/06/20 15:06:10;;;;;;;22.55;19.80;;;;;;;31.34;31.38;100231.66;1824598;78;28285;-57
2023/06/20 15:08:37;;;;;;;19.95;17.07;;;;;;;31.33;31.79;100231.52;1824449;78;25365;-55
2023/06/20 15:11:03;;;;;;;17.25;15.70;;;;;;;31.32;31.83;100234.77;1824508;78;25628;-54
2023/06/20 15:13:29;;;;;;;9.28;8.38;;;;;;;31.26;31.91;100232.55;1824500;78;25628;-52
2023/06/20 15:15:55;;;;;;;11.93;8.45;;;;;;;31.20;31.63;100236.38;1824511;78;25536;-50
2023/06/20 15:18:21;;;;;;;9.83;8.88;;;;;;;31.10;31.89;100236.91;1824425;78;27471;-53
2023/06/20 15:20:48;;;;;;;9.70;8.10;;;;;;;31.05;32.08;100240.27;1824353;78;25296;-56
2023/06/20 15:23:14;;;;;;;11.15;7.75;;;;;;;31.02;32.37;100241.17;1824394;78;25593;-56
2023/06/20 15:25:42;;;;;;;9.03;8.08;;;;;;;30.95;32.93;100237.23;1824405;78;25409;-58
2023/06/20 15:28:08;;;;;;;11.25;8.35;;;;;;;30.92;32.81;100238.88;1824622;78;25603;-57
2023/06/20 15:30:35;;;;;;;10.75;8.73;;;;;;;30.85;32.68;100237.13;1824433;78;27446;-58
2023/06/20 15:33:04;;;;;;;10.30;9.30;;;;;;;30.78;32.94;100235.18;1824619;78;25794;-59
2023/06/20 15:35:31;;;;;;;10.60;8.88;;;;;;;30.67;32.71;100235.55;1824482;78;25451;-58
2023/06/20 15:37:59;;;;;;;10.50;9.43;;;;;;;30.59;32.47;100232.82;1824462;78;25717;-58
2023/06/20 15:40:25;;;;;;;10.58;9.15;;;;;;;30.50;32.80;100234.28;1824635;78;25439;-58
2023/06/20 15:42:51;;;;;;;9.60;8.48;;;;;;;30.40;32.67;100231.22;1824373;78;27717;-59
2023/06/20 15:45:20;;;;;;;13.32;9.20;;;;;;;30.31;32.90;100231.09;1824338;78;27266;-58
2023/06/20 15:47:46;;;;;;;9.75;8.85;;;;;;;30.22;32.96;100228.17;1823985;78;35116;-52
2023/06/20 15:50:12;;;;;;;11.38;8.88;;;;;;;30.16;33.01;100234.31;1823764;78;25456;-56
2023/06/20 15:52:40;;;;;;;10.35;9.10;;;;;;;30.10;33.51;100233.91;1823848;78;25534;-53
2023/06/20 15:55:09;;;;;;;9.70;8.78;;;;;;;30.05;33.02;100235.86;1824061;78;27432;-56
2023/06/20 15:57:38;;;;;;;10.30;8.83;;;;;;;30.01;33.44;100234.58;1823746;78;25612;-53
2023/06/20 16:00:09;;;;;;;;;;;;;;;29.98;34.07;100240.45;1826472;78;25400;-58
2023/06/20 16:02:37;;;;;;;11.12;9.70;;;;;;;29.94;33.56;100238.36;1823924;78;25764;-55
2023/06/20 16:05:05;;;;;;;10.05;8.78;;;;;;;29.90;33.67;100243.27;1824022;78;25447;-57
2023/06/20 16:07:31;;;;;;;11.05;9.85;;;;;;;29.82;33.59;100239.75;1823964;78;27562;-56
2023/06/20 16:09:59;;;;;;;29.02;27.10;;;;;;;29.73;33.82;100241.15;1823723;78;26120;-55
2023/06/20 16:12:27;;;;;;;9.88;8.88;;;;;;;29.67;33.89;100237.33;1824002;78;25428;-53
2023/06/20 16:14:53;;;;;;;12.78;9.03;;;;;;;29.59;34.36;100239.56;1823699;78;25537;-53
2023/06/20 16:17:21;;;;;;;11.40;10.30;;;;;;;29.53;34.27;100241.94;1823799;78;25396;-51
2023/06/20 16:19:47;;;;;;;12.80;11.47;;;;;;;29.45;34.24;100238.55;1824021;78;27423;-50
2023/06/20 16:22:15;;;;;;;11.12;9.85;;;;;;;29.42;34.54;100245.00;1823724;78;25608;-50
2023/06/20 16:24:44;;;;;;;11.12;9.58;;;;;;;29.33;34.38;100241.45;1824042;78;25444;-53
2023/06/20 16:27:12;;;;;;;15.15;9.48;;;;;;;29.24;34.38;100237.14;1823885;78;25534;-55
2023/06/20 16:29:39;;;;;;;11.07;9.33;;;;;;;29.17;34.74;100242.91;1824120;78;25424;-55
2023/06/20 16:32:08;;;;;;;10.75;9.20;;;;;;;29.09;34.66;100246.45;1823755;78;27514;-53
2023/06/20 16:34:34;;;;;;;;;;;;;;;29.01;34.66;100243.67;1826415;78;25612;-57
2023/06/20 16:37:02;;;;;;;10.95;9.85;;;;;;;28.93;34.71;100252.03;1828839;78;25551;-57
2023/06/20 16:39:30;;;;;;;14.28;10.08;;;;;;;28.85;35.11;100254.23;1829977;78;25434;-51
2023/06/20 16:41:59;;;;;;;10.88;9.78;;;;;;;28.79;35.54;100251.78;1829939;77;25524;-56
2023/06/20 16:44:25;;;;;;;11.57;10.00;;;;;;;28.70;35.28;100249.62;1830022;78;27510;-51
2023/06/20 16:46:51;;;;;;;10.75;9.28;;;;;;;28.62;35.64;100250.41;1829783;77;25367;-51
2023/06/20 16:49:18;;;;;;;11.28;10.08;;;;;;;28.55;36.45;100247.78;1829925;77;25625;-52
2023/06/20 16:51:45;;;;;;;10.88;9.75;;;;;;;28.47;36.87;100245.77;1829840;78;27395;-49
2023/06/20 16:54:11;;;;;;;10.80;9.80;;;;;;;28.42;37.24;100246.89;1829943;77;25388;-53
2023/06/20 16:56:39;;;;;;;13.10;10.30;;;;;;;28.36;37.78;100248.00;1829717;78;28194;-50
2023/06/20 16:59:05;;;;;;;11.10;9.27;;;;;;;28.31;38.31;100256.86;1830030;77;25944;-49
2023/06/20 17:01:32;;;;;;;30.75;28.35;;;;;;;28.25;38.40;100253.04;1829905;77;25603;-51
2023/06/20 17:04:00;;;;;;;10.68;9.60;;;;;;;28.22;38.49;100251.12;1829878;77;25592;-48
2023/06/20 17:06:26;;;;;;;11.25;10.13;;;;;;;28.19;38.53;100252.75;1830087;77;25554;-49
2023/06/20 17:08:52;;;;;;;69.45;65.08;;;;;;;28.15;38.40;100248.50;1829868;78;27502;-49
2023/06/20 17:11:20;;;;;;;15.93;14.47;;;;;;;28.10;38.60;100253.95;1829731;77;25585;-48
2023/06/20 17:13:47;;;;;;;72.65;67.95;;;;;;;28.05;38.40;100254.47;1830135;77;25356;-48
2023/06/20 17:16:14;;;;;;;67.55;62.85;;;;;;;26.35;38.66;99986.30;1829946;77;25736;-49
2023/06/20 17:18:41;;;;;;;11.83;10.60;;;;;;;27.88;38.86;100248.04;1829912;78;25575;-49
2023/06/20 17:21:09;;;;;;;12.03;10.82;;;;;;;27.79;38.90;100251.41;1829912;77;27489;-50
2023/06/20 17:23:40;;;;;;;13.65;10.70;;;;;;;27.73;39.11;100254.49;1829950;78;26265;-54
2023/06/20 17:26:09;;;;;;;70.03;65.62;;;;;;;27.65;39.37;100250.28;1829931;78;25624;-55
2023/06/20 17:28:34;;;;;;;68.10;63.42;;;;;;;26.40;39.91;100059.88;1829517;77;25431;-51
2023/06/20 17:31:02;;;;;;;72.30;67.17;;;;;;;25.48;40.03;99928.01;1830099;77;25528;-49
2023/06/20 17:33:30;;;;;;;75.03;69.85;;;;;;;24.15;40.44;99735.69;1829879;77;29625;-51
2023/06/20 17:35:56;;;;;;;76.22;70.75;;;;;;;23.00;40.66;99559.61;1829781;77;25615;-50
2023/06/20 17:38:25;;;;;;;82.08;75.20;;;;;;;22.45;40.87;99489.13;1829873;78;25515;-49
2023/06/20 17:40:53;;;;;;;62.48;55.60;;;;;;;22.58;41.03;99530.73;1829946;77;25570;-49
2023/06/20 17:43:19;;;;;;;22.80;20.23;;;;;;;26.96;41.01;100252.12;1830146;77;25410;-49
2023/06/20 17:45:45;;;;;;;79.15;73.40;;;;;;;26.90;41.62;100253.80;1829792;78;27517;-51
2023/06/20 17:48:11;;;;;;;79.42;73.85;;;;;;;23.31;41.75;99695.66;1829713;78;25387;-55
2023/06/20 17:50:38;;;;;;;76.72;71.20;;;;;;;23.19;42.04;99687.30;1829756;78;25562;-55
2023/06/20 17:53:06;;;;;;;78.87;73.33;;;;;;;23.86;42.44;99807.08;1829838;78;25541;-53
2023/06/20 17:55:32;;;;;;;78.25;72.47;;;;;;;22.09;42.51;99523.08;1829903;77;25201;-54
2023/06/20 17:57:59;;;;;;;78.30;72.53;;;;;;;;;;1829459;77;27444;-54